Time;durP1;ratioP1;P1;durP2;ratioP2;P2;SDS_P1;SDS_P2;PMS_P1;PMS_P2;Temp;Humidity;BMP_temperature;BMP_pressure;BME280_temperature;BME280_humidity;BME280_pressure;Samples;Min_cycle;Max_cycle;Signal;HPM_P1;HPM_P2
2023/12/22 00:04:47;;;;;;;7.70;2.90;;;5.00;99.90;;;;;;5815058;24;20313;-83
2023/12/22 00:35:16;;;;;;;9.23;2.70;;;4.90;99.90;;;;;;5941642;23;20183;-85
2023/12/22 01:00:39;;;;;;;9.80;2.97;;;5.10;99.90;;;;;;5789582;23;20271;-84
2023/12/22 01:20:49;;;;;;;5.87;2.47;;;5.20;99.90;;;;;;5826653;24;20859;-83
2023/12/22 01:51:20;;;;;;;6.93;2.50;;;5.20;99.90;;;;;;5806475;24;20779;-84
2023/12/22 02:21:04;;;;;;;7.67;2.80;;;5.20;99.90;;;;;;5730357;24;20538;-85
2023/12/22 02:42:01;;;;;;;10.43;3.13;;;5.50;97.30;;;;;;5653529;24;20175;-86
2023/12/22 03:07:01;;;;;;;7.87;2.90;;;5.50;96.40;;;;;;5764250;24;20541;-84
2023/12/22 04:07:41;;;;;;;11.47;3.00;;;4.80;99.90;;;;;;5883588;24;20479;-85
2023/12/22 04:33:23;;;;;;;12.90;2.70;;;4.70;99.90;;;;;;5910240;24;20414;-82
2023/12/22 05:09:07;;;;;;;8.23;3.37;;;4.50;99.90;;;;;;6086230;23;20180;-86
2023/12/22 05:13:26;;;;;;;4.90;2.13;;;4.40;99.90;;;;;;6036626;23;20660;-85
2023/12/22 05:33:59;;;;;;;12.87;3.30;;;4.10;99.90;;;;;;6067555;23;20311;-84
2023/12/22 05:54:34;;;;;;;5.00;2.73;;;4.20;99.90;;;;;;5853234;24;20212;-85
2023/12/22 06:40:13;;;;;;;11.60;3.70;;;4.40;98.00;;;;;;6036708;23;20155;-87
2023/12/22 07:15:45;;;;;;;9.90;2.47;;;4.60;82.10;;;;;;5779404;24;21107;-82
2023/12/22 07:46:01;;;;;;;9.00;2.70;;;4.60;84.50;;;;;;5748865;24;20569;-84
2023/12/22 08:06:27;;;;;;;4.93;2.33;;;3.90;85.30;;;;;;5732856;24;20212;-85
2023/12/22 08:26:43;;;;;;;5.80;2.50;;;3.90;86.30;;;;;;6009866;23;20708;-86
2023/12/22 08:47:06;;;;;;;6.10;2.70;;;4.00;89.10;;;;;;6016594;23;20289;-85
2023/12/22 08:58:29;;;;;;;6.70;2.53;;;4.00;90.50;;;;;;5961634;23;20212;-83
2023/12/22 09:00:59;;;;;;;6.03;2.60;;;4.10;90.20;;;;;;6044181;23;20181;-85
2023/12/22 09:03:30;;;;;;;5.97;2.20;;;4.20;90.60;;;;;;6064321;23;20315;-86
2023/12/22 09:06:01;;;;;;;4.10;2.20;;;4.00;90.60;;;;;;6056149;23;20226;-84
2023/12/22 09:08:32;;;;;;;8.13;2.53;;;4.20;90.20;;;;;;6047693;23;20518;-85
2023/12/22 09:11:01;;;;;;;7.13;2.40;;;4.00;90.10;;;;;;6062918;23;20176;-85
2023/12/22 09:13:30;;;;;;;8.87;2.90;;;4.00;90.10;;;;;;6055900;23;20472;-87
2023/12/22 09:15:59;;;;;;;13.67;3.07;;;4.30;89.80;;;;;;6069356;23;20181;-87
2023/12/22 09:18:29;;;;;;;8.57;3.43;;;4.00;89.80;;;;;;6087449;23;20386;-86
2023/12/22 09:20:58;;;;;;;5.10;2.20;;;4.30;89.40;;;;;;6092284;23;20166;-86
2023/12/22 09:23:28;;;;;;;6.87;2.43;;;4.30;88.50;;;;;;6056008;23;20414;-84
2023/12/22 09:25:58;;;;;;;6.30;2.40;;;4.30;87.40;;;;;;6073067;23;20610;-86
2023/12/22 09:28:26;;;;;;;7.83;2.67;;;4.50;86.50;;;;;;6063414;23;20708;-83
2023/12/22 09:30:55;;;;;;;7.60;2.40;;;4.40;86.80;;;;;;6069076;23;21060;-84
2023/12/22 09:33:24;;;;;;;7.20;2.93;;;4.40;86.00;;;;;;6069328;23;20213;-85
2023/12/22 09:35:55;;;;;;;5.93;2.47;;;4.40;86.80;;;;;;6060712;23;20575;-85
2023/12/22 09:38:23;;;;;;;6.60;2.63;;;4.40;86.00;;;;;;6062478;23;20688;-83
2023/12/22 09:40:53;;;;;;;7.37;2.57;;;4.50;85.30;;;;;;6061655;23;21237;-85
2023/12/22 09:43:22;;;;;;;5.93;2.20;;;4.50;83.50;;;;;;6078204;23;20193;-86
2023/12/22 09:45:52;;;;;;;7.37;2.30;;;4.60;83.30;;;;;;6097275;23;20227;-86
2023/12/22 09:48:27;;;;;;;7.03;2.60;;;4.80;83.30;;;;;;6067656;23;20423;-85
2023/12/22 09:51:00;;;;;;;9.90;2.70;;;4.90;83.40;;;;;;6094806;23;20343;-84
2023/12/22 09:53:32;;;;;;;7.73;2.30;;;5.00;81.80;;;;;;6093156;23;20207;-86
2023/12/22 09:56:02;;;;;;;5.27;2.33;;;5.20;81.30;;;;;;6080258;23;20169;-85
2023/12/22 09:58:35;;;;;;;6.70;2.47;;;5.10;81.20;;;;;;6089899;23;20922;-83
2023/12/22 10:01:06;;;;;;;7.00;1.90;;;5.10;80.90;;;;;;6088454;23;20185;-85
2023/12/22 10:03:35;;;;;;;5.73;2.53;;;5.20;80.40;;;;;;6127702;23;20567;-85
2023/12/22 10:06:06;;;;;;;5.80;2.63;;;5.30;80.80;;;;;;6148136;23;20196;-83
2023/12/22 10:08:36;;;;;;;6.80;2.43;;;5.10;80.40;;;;;;6146044;23;20719;-85
2023/12/22 10:11:05;;;;;;;8.10;2.30;;;5.10;81.10;;;;;;6146280;23;20427;-83
2023/12/22 10:13:35;;;;;;;8.10;2.67;;;5.10;80.90;;;;;;6147061;23;20497;-83
2023/12/22 10:16:06;;;;;;;7.83;2.30;;;5.00;81.70;;;;;;6143272;23;20738;-83
2023/12/22 10:18:35;;;;;;;8.27;2.57;;;4.90;86.70;;;;;;6131972;23;20189;-84
2023/12/22 10:21:06;;;;;;;4.40;1.30;;;4.60;90.90;;;;;;6146069;23;20713;-82
2023/12/22 10:23:34;;;;;;;1.80;1.20;;;3.80;99.00;;;;;;6152684;23;20807;-87
2023/12/22 10:26:04;;;;;;;3.13;1.00;;;3.00;99.90;;;;;;6140548;23;20259;-83
2023/12/22 10:28:35;;;;;;;2.87;1.00;;;2.50;99.90;;;;;;6135764;23;20193;-86
2023/12/22 10:31:07;;;;;;;4.53;0.83;;;2.20;99.90;;;;;;6153560;23;20491;-82
2023/12/22 10:33:41;;;;;;;1.23;0.90;;;1.80;99.90;;;;;;6157562;23;20523;-85
2023/12/22 10:36:19;;;;;;;2.37;1.27;;;1.40;99.90;;;;;;6148827;23;20169;-84
2023/12/22 10:39:00;;;;;;;1.50;0.90;;;1.30;99.90;;;;;;6146340;23;20622;-84
2023/12/22 10:41:47;;;;;;;2.97;0.80;;;1.20;99.90;;;;;;6145742;23;20218;-82
2023/12/22 10:44:21;;;;;;;1.57;0.77;;;1.10;99.90;;;;;;6115969;23;20201;-85
2023/12/22 10:46:53;;;;;;;0.70;0.60;;;1.00;99.90;;;;;;6146489;23;20215;-85
2023/12/22 10:49:22;;;;;;;2.17;0.90;;;0.90;99.90;;;;;;6140728;23;20445;-82
2023/12/22 10:51:53;;;;;;;1.00;0.70;;;0.80;99.90;;;;;;6148475;23;20169;-85
2023/12/22 10:54:23;;;;;;;1.47;0.67;;;0.90;99.90;;;;;;6148452;23;20216;-84
2023/12/22 10:56:59;;;;;;;1.43;1.00;;;0.90;99.90;;;;;;6149319;23;20217;-82
2023/12/22 10:59:30;;;;;;;2.33;1.10;;;0.90;99.90;;;;;;6149028;23;20171;-82
2023/12/22 11:02:03;;;;;;;1.30;1.20;;;1.00;99.90;;;;;;6156865;23;20182;-83
2023/12/22 11:04:36;;;;;;;4.40;1.33;;;1.00;99.90;;;;;;6160341;23;20204;-85
2023/12/22 11:07:10;;;;;;;2.70;1.30;;;1.10;99.90;;;;;;6162726;23;20173;-84
2023/12/22 11:09:42;;;;;;;5.57;1.50;;;1.20;99.90;;;;;;6164486;23;20213;-86
2023/12/22 11:12:12;;;;;;;3.47;1.77;;;1.20;99.90;;;;;;6154014;23;21416;-85
2023/12/22 11:14:41;;;;;;;3.80;1.83;;;1.40;99.90;;;;;;6163404;23;20904;-82
2023/12/22 11:17:12;;;;;;;4.33;1.47;;;1.40;99.90;;;;;;6164677;23;20806;-87
2023/12/22 11:19:42;;;;;;;4.07;2.07;;;1.50;99.90;;;;;;6164963;23;20236;-86
2023/12/22 11:22:14;;;;;;;4.93;2.10;;;1.60;99.90;;;;;;6162199;23;20223;-86
2023/12/22 11:24:45;;;;;;;3.50;2.13;;;1.60;99.90;;;;;;6174605;23;20437;-84
2023/12/22 11:27:17;;;;;;;6.63;2.23;;;1.50;99.90;;;;;;6191861;23;20276;-86
2023/12/22 11:29:49;;;;;;;6.43;2.30;;;1.70;99.90;;;;;;6226420;23;21009;-86
2023/12/22 11:32:20;;;;;;;6.30;2.33;;;1.70;99.90;;;;;;6235370;23;20444;-88
2023/12/22 11:34:50;;;;;;;4.63;2.30;;;1.90;99.90;;;;;;6234286;23;20188;-86
2023/12/22 11:37:23;;;;;;;8.27;2.60;;;1.90;99.90;;;;;;6240656;23;20587;-91
2023/12/22 11:39:53;;;;;;;3.80;2.00;;;1.90;99.90;;;;;;6255530;23;20448;-86
2023/12/22 11:42:32;;;;;;;6.87;2.33;;;2.10;99.90;;;;;;6214191;23;20279;-86
2023/12/22 11:45:01;;;;;;;2.60;2.20;;;2.20;99.90;;;;;;6249989;23;20535;-87
2023/12/22 11:47:34;;;;;;;4.37;2.17;;;2.10;99.90;;;;;;6245675;23;20608;-87
2023/12/22 11:50:04;;;;;;;3.93;2.30;;;2.00;99.90;;;;;;6256440;23;20609;-86
2023/12/22 11:52:40;;;;;;;6.17;2.50;;;2.00;99.90;;;;;;6249078;23;20172;-86
2023/12/22 11:55:09;;;;;;;5.47;3.40;;;2.00;99.90;;;;;;6205672;23;20204;-83
2023/12/22 11:57:39;;;;;;;7.67;2.50;;;2.10;99.90;;;;;;6248631;23;20276;-85
2023/12/22 12:00:10;;;;;;;4.13;2.37;;;2.20;99.90;;;;;;6247324;23;20166;-87
2023/12/22 12:02:43;;;;;;;5.93;3.07;;;2.30;99.90;;;;;;6211872;23;20188;-85
2023/12/22 12:05:14;;;;;;;5.23;2.80;;;2.40;99.90;;;;;;6250039;23;20180;-84
2023/12/22 12:07:47;;;;;;;5.37;2.73;;;2.50;99.90;;;;;;6205361;23;20608;-85
2023/12/22 12:10:46;;;;;;;4.60;3.03;;;2.70;99.90;;;;;;6243937;23;20176;-82
2023/12/22 12:13:17;;;;;;;3.20;2.50;;;2.50;99.90;;;;;;6241905;23;20180;-83
2023/12/22 12:15:46;;;;;;;5.00;2.87;;;2.70;99.90;;;;;;6244525;23;20189;-86
2023/12/22 12:18:16;;;;;;;4.07;2.73;;;2.50;99.90;;;;;;6241266;23;20212;-84
2023/12/22 12:20:47;;;;;;;7.03;2.90;;;2.60;99.90;;;;;;6242478;23;20165;-85
2023/12/22 12:23:18;;;;;;;3.33;2.83;;;2.60;99.90;;;;;;6241466;23;20165;-84
2023/12/22 12:25:50;;;;;;;6.73;3.03;;;2.60;99.90;;;;;;6245070;23;20167;-87
2023/12/22 12:28:26;;;;;;;6.03;2.93;;;2.60;99.90;;;;;;6239034;23;20385;-84
2023/12/22 12:31:02;;;;;;;4.47;2.63;;;2.70;99.90;;;;;;6240528;23;20671;-86
2023/12/22 12:33:32;;;;;;;7.53;2.93;;;2.70;99.90;;;;;;6240148;23;20616;-84
2023/12/22 12:36:04;;;;;;;5.67;2.97;;;2.70;99.90;;;;;;6238072;23;20223;-83
2023/12/22 12:38:52;;;;;;;7.97;2.60;;;2.70;99.90;;;;;;6236752;23;20593;-85
2023/12/22 12:41:30;;;;;;;5.33;3.10;;;2.90;99.90;;;;;;6238275;23;20185;-84
2023/12/22 12:44:04;;;;;;;7.07;2.87;;;2.70;99.90;;;;;;6242372;23;20213;-84
2023/12/22 12:46:36;;;;;;;7.20;3.00;;;2.60;99.90;;;;;;6244872;23;20196;-85
2023/12/22 12:49:06;;;;;;;6.03;2.77;;;2.60;99.90;;;;;;6244955;23;20551;-86
2023/12/22 12:51:39;;;;;;;8.17;3.50;;;2.60;99.90;;;;;;6207288;23;20658;-86
2023/12/22 12:54:10;;;;;;;4.77;2.63;;;2.60;99.90;;;;;;6245302;23;20194;-83
2023/12/22 12:56:40;;;;;;;5.30;2.73;;;2.60;99.90;;;;;;6252091;22;20222;-83
2023/12/22 12:59:10;;;;;;;6.23;2.90;;;2.50;99.90;;;;;;6250414;23;20168;-83
2023/12/22 13:01:42;;;;;;;4.23;2.57;;;2.40;99.90;;;;;;6236718;23;20298;-86
2023/12/22 13:04:12;;;;;;;6.17;3.20;;;2.40;99.90;;;;;;6232834;23;20287;-84
2023/12/22 13:06:48;;;;;;;5.40;2.70;;;2.40;99.90;;;;;;6235322;23;20203;-85
2023/12/22 13:09:19;;;;;;;5.97;3.20;;;2.40;99.90;;;;;;6234878;23;20259;-86
2023/12/22 13:11:48;;;;;;;5.83;2.97;;;2.30;99.90;;;;;;6238028;23;20587;-86
2023/12/22 13:14:26;;;;;;;5.13;3.60;;;2.30;99.90;;;;;;6241234;23;20259;-86
2023/12/22 13:16:57;;;;;;;7.17;3.23;;;2.20;99.90;;;;;;6245616;23;20775;-87
2023/12/22 13:19:27;;;;;;;5.73;3.43;;;2.20;99.90;;;;;;6239186;23;20180;-81
2023/12/22 13:21:57;;;;;;;7.17;3.47;;;2.20;99.90;;;;;;6240221;23;20175;-84
2023/12/22 13:24:28;;;;;;;6.37;3.20;;;2.20;99.90;;;;;;6250858;23;20509;-82
2023/12/22 13:27:02;;;;;;;6.20;3.33;;;2.20;99.90;;;;;;6255890;23;20178;-85
2023/12/22 13:29:31;;;;;;;4.47;3.20;;;2.20;99.90;;;;;;6254437;23;20158;-82
2023/12/22 13:32:02;;;;;;;3.83;3.33;;;2.20;99.90;;;;;;6258185;23;20195;-84
2023/12/22 13:34:32;;;;;;;5.43;3.43;;;2.30;99.90;;;;;;6258657;23;20218;-82
2023/12/22 13:37:03;;;;;;;5.53;3.40;;;2.30;99.90;;;;;;6256383;23;20192;-87
2023/12/22 13:39:36;;;;;;;6.03;3.97;;;2.30;99.90;;;;;;6255442;23;20221;-83
2023/12/22 13:44:52;;;;;;;5.03;3.47;;;2.20;99.90;;;;;;6226931;22;20168;-87
2023/12/22 13:47:23;;;;;;;5.87;3.73;;;2.20;99.90;;;;;;6255110;22;20183;-84
2023/12/22 13:49:57;;;;;;;7.97;3.80;;;2.30;99.90;;;;;;6267136;22;20181;-85
2023/12/22 13:52:36;;;;;;;4.27;3.20;;;2.10;99.90;;;;;;6265719;22;20429;-85
2023/12/22 13:55:13;;;;;;;5.07;3.57;;;2.30;99.90;;;;;;6232660;22;20202;-88
2023/12/22 13:57:45;;;;;;;4.93;3.53;;;2.30;99.90;;;;;;6267133;22;20148;-87
2023/12/22 14:00:31;;;;;;;6.23;3.80;;;2.20;99.90;;;;;;6266272;22;20156;-89
2023/12/22 14:03:05;;;;;;;6.30;3.70;;;2.20;99.90;;;;;;6267196;22;20168;-87
2023/12/22 14:05:37;;;;;;;6.97;4.10;;;2.20;99.90;;;;;;6265762;22;20246;-86
2023/12/22 14:08:08;;;;;;;6.27;3.80;;;2.30;99.90;;;;;;6265153;23;20385;-88
2023/12/22 14:10:39;;;;;;;7.20;3.80;;;2.20;99.90;;;;;;6259700;23;20174;-85
2023/12/22 14:13:08;;;;;;;8.73;4.63;;;2.20;99.90;;;;;;6227991;23;20350;-86
2023/12/22 14:15:38;;;;;;;6.93;4.10;;;2.10;99.90;;;;;;6261715;23;20187;-87
2023/12/22 14:18:13;;;;;;;5.40;3.73;;;2.10;99.90;;;;;;6255804;23;20261;-85
2023/12/22 14:20:43;;;;;;;6.47;3.97;;;2.10;99.90;;;;;;6251780;23;20214;-86
2023/12/22 14:23:16;;;;;;;7.03;4.43;;;2.30;99.90;;;;;;6249104;23;20260;-84
2023/12/22 14:25:47;;;;;;;7.80;4.60;;;2.10;99.90;;;;;;6245299;23;20181;-87
2023/12/22 14:28:16;;;;;;;8.87;4.73;;;2.10;99.90;;;;;;6242370;23;20179;-88
2023/12/22 14:30:46;;;;;;;9.13;5.20;;;2.10;99.90;;;;;;6243137;23;20162;-86
2023/12/22 14:33:15;;;;;;;7.20;5.00;;;1.90;99.90;;;;;;6214452;23;20180;-86
2023/12/22 14:35:47;;;;;;;7.40;4.40;;;2.10;99.90;;;;;;6222602;23;20765;-87
2023/12/22 14:38:16;;;;;;;8.53;4.83;;;2.00;99.90;;;;;;6210473;23;20230;-86
2023/12/22 14:40:48;;;;;;;9.10;4.63;;;2.00;99.90;;;;;;6242930;23;20467;-83
2023/12/22 14:43:17;;;;;;;10.27;4.87;;;1.90;99.90;;;;;;6244340;23;20224;-84
2023/12/22 14:45:47;;;;;;;4.87;4.37;;;1.90;99.90;;;;;;6250114;23;20306;-85
2023/12/22 14:48:17;;;;;;;9.87;5.40;;;1.90;99.90;;;;;;6239090;23;20204;-85
2023/12/22 14:50:47;;;;;;;6.97;4.70;;;1.90;99.90;;;;;;6247484;23;20224;-86
2023/12/22 14:53:15;;;;;;;7.57;4.67;;;1.90;99.90;;;;;;6258481;23;20207;-86
2023/12/22 14:55:47;;;;;;;9.03;5.37;;;2.00;99.90;;;;;;6223624;23;20210;-84
2023/12/22 14:58:17;;;;;;;9.40;5.30;;;1.90;99.90;;;;;;6243866;23;20199;-87
2023/12/22 15:00:50;;;;;;;6.40;4.47;;;2.10;99.90;;;;;;6265977;22;20168;-86
2023/12/22 15:03:18;;;;;;;8.67;4.77;;;2.00;99.90;;;;;;6267966;22;20169;-88
2023/12/22 15:05:48;;;;;;;8.07;4.97;;;2.00;99.90;;;;;;6266020;22;20180;-85
2023/12/22 15:08:20;;;;;;;10.90;5.23;;;2.00;99.90;;;;;;6267543;22;20748;-87
2023/12/22 15:10:51;;;;;;;9.90;4.83;;;2.00;99.90;;;;;;6264259;22;20224;-89
2023/12/22 15:13:25;;;;;;;9.80;5.43;;;2.00;99.90;;;;;;6265142;22;20273;-87
2023/12/22 15:15:56;;;;;;;10.90;5.53;;;2.10;99.90;;;;;;6213804;23;20262;-83
2023/12/22 15:18:30;;;;;;;12.10;4.73;;;2.20;99.90;;;;;;6249491;23;20401;-86
2023/12/22 15:21:04;;;;;;;10.57;5.53;;;2.10;99.90;;;;;;6215169;23;20614;-86
2023/12/22 15:23:33;;;;;;;11.40;5.00;;;2.00;99.90;;;;;;6244742;23;20198;-85
2023/12/22 15:26:03;;;;;;;10.13;5.83;;;2.10;99.90;;;;;;6246004;23;20175;-86
2023/12/22 15:28:34;;;;;;;10.47;5.87;;;2.00;99.90;;;;;;6245638;23;20180;-85
2023/12/22 15:31:08;;;;;;;11.23;6.17;;;1.90;99.90;;;;;;6255903;23;20214;-86
2023/12/22 15:33:39;;;;;;;9.13;5.17;;;2.00;99.90;;;;;;6250537;23;20560;-87
2023/12/22 15:36:09;;;;;;;10.83;6.57;;;2.00;99.90;;;;;;6258825;23;20191;-83
2023/12/22 15:38:38;;;;;;;10.73;4.70;;;1.90;99.90;;;;;;6253201;22;20230;-85
2023/12/22 15:41:08;;;;;;;11.10;6.33;;;2.00;99.90;;;;;;6249310;23;20239;-86
2023/12/22 15:43:39;;;;;;;7.47;5.43;;;1.90;99.90;;;;;;6246442;23;20173;-86
2023/12/22 15:46:11;;;;;;;12.60;5.90;;;1.90;99.90;;;;;;6247096;23;20380;-85
2023/12/22 15:48:42;;;;;;;11.30;5.67;;;1.90;99.90;;;;;;6243870;23;20167;-85
2023/12/22 15:51:13;;;;;;;12.77;6.30;;;1.90;99.90;;;;;;6246821;23;20164;-88
2023/12/22 15:53:43;;;;;;;10.33;5.87;;;1.90;99.90;;;;;;6249497;23;20568;-88
2023/12/22 15:56:13;;;;;;;11.43;6.03;;;1.90;99.90;;;;;;6248536;23;20188;-87
2023/12/22 15:58:44;;;;;;;8.83;6.17;;;1.90;99.90;;;;;;6242735;23;20175;-89
2023/12/22 16:01:15;;;;;;;12.10;6.20;;;1.90;99.90;;;;;;6232571;23;20188;-84
2023/12/22 16:03:47;;;;;;;14.73;5.63;;;1.90;99.90;;;;;;6233417;23;20167;-85
2023/12/22 16:06:19;;;;;;;14.23;5.40;;;1.90;99.90;;;;;;6246519;23;20251;-88
2023/12/22 16:08:49;;;;;;;9.93;5.73;;;1.90;99.90;;;;;;6249308;23;20164;-84
2023/12/22 16:11:23;;;;;;;15.07;6.53;;;1.90;99.90;;;;;;6212657;23;20280;-88
2023/12/22 16:13:57;;;;;;;12.87;6.07;;;1.70;99.90;;;;;;6245486;23;20171;-87
2023/12/22 16:16:27;;;;;;;9.93;5.90;;;1.80;99.90;;;;;;6244438;23;20254;-86
2023/12/22 16:18:56;;;;;;;12.43;6.17;;;1.80;99.90;;;;;;6243636;23;20171;-87
2023/12/22 16:21:28;;;;;;;15.00;6.07;;;2.00;99.90;;;;;;6207864;23;20568;-88
2023/12/22 16:23:57;;;;;;;9.33;5.10;;;1.70;99.90;;;;;;6242040;23;20207;-84
2023/12/22 16:26:26;;;;;;;9.80;5.40;;;1.80;99.90;;;;;;6244681;23;20219;-84
2023/12/22 16:28:59;;;;;;;14.60;4.97;;;1.80;99.90;;;;;;6242367;23;20237;-85
2023/12/22 16:31:28;;;;;;;9.23;4.90;;;1.80;99.90;;;;;;6207919;23;20179;-88
2023/12/22 16:33:57;;;;;;;12.97;5.07;;;1.80;99.90;;;;;;6245115;23;20358;-87
2023/12/22 16:36:27;;;;;;;13.00;4.87;;;1.80;99.90;;;;;;6219064;23;20518;-87
2023/12/22 16:38:56;;;;;;;13.07;4.17;;;1.80;99.90;;;;;;6247182;23;20607;-86
2023/12/22 16:41:28;;;;;;;8.53;4.03;;;1.90;99.90;;;;;;6245635;23;20164;-84
2023/12/22 16:43:59;;;;;;;11.90;4.63;;;1.80;99.90;;;;;;6246085;23;20170;-84
2023/12/22 16:46:28;;;;;;;10.83;4.17;;;1.80;99.90;;;;;;6246636;23;20564;-88
2023/12/22 16:48:56;;;;;;;10.07;4.43;;;1.70;99.90;;;;;;6242533;23;20166;-91
2023/12/22 16:51:26;;;;;;;14.53;4.30;;;1.90;99.90;;;;;;6247682;23;20252;-84
2023/12/22 16:53:57;;;;;;;13.60;5.50;;;1.90;99.90;;;;;;6243130;23;20172;-88
2023/12/22 16:56:28;;;;;;;8.87;3.80;;;1.90;99.90;;;;;;6247178;23;20404;-86
2023/12/22 16:58:58;;;;;;;10.40;4.87;;;1.90;99.90;;;;;;6245546;23;20169;-88
2023/12/22 17:01:29;;;;;;;13.37;4.87;;;1.90;99.90;;;;;;6243775;23;20196;-88
2023/12/22 17:04:10;;;;;;;10.17;3.50;;;1.90;99.90;;;;;;6207685;23;20203;-86
2023/12/22 17:06:47;;;;;;;12.57;3.93;;;1.90;99.90;;;;;;6241895;23;20160;-87
2023/12/22 17:09:17;;;;;;;9.73;3.03;;;2.00;99.90;;;;;;6209783;23;20175;-87
2023/12/22 17:11:49;;;;;;;7.57;3.90;;;2.20;99.90;;;;;;6248515;23;20568;-89
2023/12/22 17:14:20;;;;;;;9.30;3.80;;;2.20;99.90;;;;;;6252718;23;20320;-85
2023/12/22 17:16:49;;;;;;;11.73;4.33;;;2.20;99.90;;;;;;6259375;23;20433;-85
2023/12/22 17:19:26;;;;;;;17.63;4.87;;;2.30;99.90;;;;;;6262446;22;20319;-87
2023/12/22 17:21:57;;;;;;;7.67;3.47;;;2.30;99.90;;;;;;6265222;22;20167;-85
2023/12/22 17:24:27;;;;;;;8.13;3.33;;;2.20;99.90;;;;;;6264113;23;20164;-87
2023/12/22 17:26:56;;;;;;;11.90;3.73;;;2.40;99.90;;;;;;6209575;23;20620;-88
2023/12/22 17:29:27;;;;;;;12.87;3.63;;;2.50;99.90;;;;;;6251085;23;20244;-87
2023/12/22 17:31:59;;;;;;;13.13;4.47;;;2.50;99.90;;;;;;6248513;23;20184;-89
2023/12/22 17:34:34;;;;;;;11.33;4.10;;;2.50;99.90;;;;;;6246180;23;20169;-88
2023/12/22 17:37:05;;;;;;;12.30;3.93;;;2.60;99.90;;;;;;6245652;23;20213;-86
2023/12/22 17:39:34;;;;;;;6.90;3.13;;;2.60;99.90;;;;;;6245098;23;20226;-85
2023/12/22 17:42:03;;;;;;;9.80;3.37;;;2.60;99.90;;;;;;6248270;23;20169;-85
2023/12/22 17:44:36;;;;;;;8.10;2.87;;;2.70;99.90;;;;;;6209268;23;20203;-90
2023/12/22 17:47:06;;;;;;;9.40;3.07;;;2.70;99.90;;;;;;6216630;23;20244;-86
2023/12/22 17:49:35;;;;;;;9.13;3.37;;;2.70;99.90;;;;;;6258991;23;20567;-86
2023/12/22 17:52:08;;;;;;;10.40;3.23;;;2.70;99.90;;;;;;6261589;23;20165;-87
2023/12/22 17:54:38;;;;;;;6.93;3.50;;;2.70;99.90;;;;;;6257108;23;20228;-86
2023/12/22 17:57:08;;;;;;;6.80;3.17;;;2.80;99.90;;;;;;6245088;23;20571;-90
2023/12/22 17:59:40;;;;;;;6.97;3.40;;;3.00;99.90;;;;;;6244684;23;20166;-86
2023/12/22 18:02:11;;;;;;;9.60;2.90;;;2.90;99.90;;;;;;6244338;23;20189;-85
2023/12/22 18:04:41;;;;;;;12.43;4.27;;;2.90;97.20;;;;;;6241843;23;20167;-88
2023/12/22 18:07:11;;;;;;;8.07;2.87;;;3.00;95.70;;;;;;6244502;23;20158;-86
2023/12/22 18:09:40;;;;;;;8.77;2.53;;;3.10;94.60;;;;;;6208475;23;20193;-86
2023/12/22 18:12:11;;;;;;;5.60;2.80;;;3.10;94.10;;;;;;6221263;23;20227;-83
2023/12/22 18:14:42;;;;;;;8.70;3.33;;;3.10;94.40;;;;;;6256398;23;20162;-86
2023/12/22 18:17:12;;;;;;;10.10;3.40;;;3.30;93.30;;;;;;6248494;23;20280;-88
2023/12/22 18:19:41;;;;;;;8.87;2.70;;;3.20;95.70;;;;;;6218274;22;20162;-87
2023/12/22 18:22:22;;;;;;;11.53;3.03;;;3.30;94.50;;;;;;6229453;22;20169;-87
2023/12/22 18:24:54;;;;;;;10.80;3.00;;;3.10;94.90;;;;;;6229459;23;20228;-84
2023/12/22 18:27:23;;;;;;;7.30;2.70;;;3.10;94.00;;;;;;6240604;23;20536;-89
2023/12/22 18:30:17;;;;;;;5.20;2.20;;;3.00;94.30;;;;;;6262657;22;20462;-86
2023/12/22 18:32:47;;;;;;;7.70;2.47;;;3.10;91.60;;;;;;6248855;23;20168;-85
2023/12/22 18:35:19;;;;;;;10.50;2.77;;;3.00;92.70;;;;;;6254485;23;20182;-86
2023/12/22 18:37:48;;;;;;;8.53;2.83;;;3.10;90.90;;;;;;6262836;22;20192;-85
2023/12/22 18:40:17;;;;;;;11.00;2.80;;;3.20;90.70;;;;;;6254507;23;20177;-86
2023/12/22 18:42:48;;;;;;;8.70;2.70;;;3.20;90.90;;;;;;6212166;23;20176;-84
2023/12/22 18:45:18;;;;;;;10.93;3.30;;;3.40;91.10;;;;;;6211422;23;20184;-88
2023/12/22 18:47:51;;;;;;;5.93;2.33;;;3.10;90.10;;;;;;6241892;23;20166;-85
2023/12/22 18:50:21;;;;;;;7.30;2.17;;;3.20;90.10;;;;;;6252156;23;20176;-87
2023/12/22 20:48:13;;;;;;;4.87;2.60;;;3.10;86.70;;;;;;6216962;22;20467;-86
2023/12/22 20:50:43;;;;;;;4.27;2.50;;;3.10;85.40;;;;;;6195902;23;20212;-85
2023/12/22 20:53:12;;;;;;;6.10;2.80;;;3.20;84.60;;;;;;6222405;23;20168;-84
2023/12/22 20:55:44;;;;;;;7.93;2.73;;;3.30;86.30;;;;;;6221690;23;20261;-84
2023/12/22 20:58:13;;;;;;;8.60;2.73;;;3.10;84.20;;;;;;6222859;23;20321;-86
2023/12/22 21:00:43;;;;;;;6.17;2.30;;;3.10;85.60;;;;;;6224962;23;20177;-88
2023/12/22 21:03:21;;;;;;;4.67;2.33;;;3.20;85.30;;;;;;6221269;23;20197;-86
2023/12/22 21:05:57;;;;;;;7.20;2.43;;;3.10;84.40;;;;;;6214849;23;20244;-86
2023/12/22 21:08:26;;;;;;;6.83;2.60;;;3.10;84.60;;;;;;6215281;23;20200;-84
2023/12/22 21:11:06;;;;;;;7.57;2.40;;;3.10;84.10;;;;;;6210769;23;20672;-89
2023/12/22 21:16:37;;;;;;;5.40;2.20;;;3.20;85.30;;;;;;6219162;23;20150;-86
2023/12/22 21:21:57;;;;;;;5.27;2.57;;;3.10;85.00;;;;;;6223381;22;20172;-87
2023/12/22 21:24:36;;;;;;;5.63;3.03;;;3.10;84.80;;;;;;6234192;22;20159;-88
2023/12/22 21:29:59;;;;;;;7.97;2.60;;;3.10;83.90;;;;;;6193197;23;20190;-86
2023/12/22 21:32:53;;;;;;;7.87;2.57;;;3.10;84.40;;;;;;6185864;23;20515;-86
2023/12/22 21:35:44;;;;;;;5.83;2.30;;;3.10;85.70;;;;;;6218623;23;20154;-87
2023/12/22 21:38:21;;;;;;;5.83;2.00;;;3.10;85.20;;;;;;6216277;23;20659;-85
2023/12/22 21:40:54;;;;;;;5.97;2.63;;;3.20;84.70;;;;;;6211280;23;20531;-85
2023/12/22 21:43:28;;;;;;;8.17;2.53;;;2.90;85.40;;;;;;6175182;23;20188;-85
2023/12/22 21:46:05;;;;;;;7.57;2.83;;;2.90;87.50;;;;;;6213723;23;20169;-89
2023/12/22 21:48:35;;;;;;;7.27;2.90;;;2.80;87.70;;;;;;6213416;23;20386;-84
2023/12/22 21:51:06;;;;;;;8.33;3.10;;;3.00;87.70;;;;;;6215000;23;20171;-87
2023/12/22 21:53:43;;;;;;;5.43;2.63;;;2.80;87.60;;;;;;6219671;23;20238;-83
2023/12/22 21:56:22;;;;;;;10.60;2.87;;;2.80;86.70;;;;;;6213878;23;20620;-88
2023/12/22 21:58:51;;;;;;;6.57;2.23;;;2.80;88.20;;;;;;6173145;23;20501;-86
2023/12/22 22:01:27;;;;;;;7.60;3.17;;;2.90;88.30;;;;;;6211493;23;20610;-85
2023/12/22 22:03:57;;;;;;;10.73;2.80;;;2.90;87.90;;;;;;6221118;23;20161;-86
2023/12/22 22:06:28;;;;;;;6.10;2.83;;;2.90;89.90;;;;;;6212141;23;20261;-86
2023/12/22 22:08:59;;;;;;;6.87;2.70;;;2.80;90.50;;;;;;6181807;23;20183;-85
2023/12/22 22:11:28;;;;;;;6.00;2.80;;;2.80;90.70;;;;;;6233242;22;20238;-86
2023/12/22 22:14:06;;;;;;;11.27;2.83;;;2.70;90.40;;;;;;6234816;22;20149;-87
2023/12/22 22:17:02;;;;;;;9.17;3.10;;;2.80;90.10;;;;;;6203024;22;20209;-86
2023/12/22 22:19:42;;;;;;;7.33;2.30;;;2.80;90.80;;;;;;6235682;22;20200;-88
2023/12/22 22:22:14;;;;;;;6.57;2.50;;;2.90;90.80;;;;;;6239450;22;20246;-88
2023/12/22 22:24:44;;;;;;;7.23;1.90;;;2.70;91.80;;;;;;6238667;22;20157;-86
2023/12/22 22:27:13;;;;;;;8.60;2.70;;;2.70;92.20;;;;;;6237411;22;20143;-87
2023/12/22 22:29:45;;;;;;;8.60;3.27;;;2.70;92.70;;;;;;6237594;22;20185;-86
2023/12/22 22:32:22;;;;;;;6.13;2.40;;;2.60;93.50;;;;;;6235918;22;20190;-89
2023/12/22 22:34:58;;;;;;;6.03;2.40;;;2.60;92.50;;;;;;6226326;22;20169;-84
2023/12/22 22:37:30;;;;;;;6.97;3.13;;;2.60;92.30;;;;;;6181094;23;20180;-84
2023/12/22 22:40:05;;;;;;;8.57;2.50;;;2.70;92.70;;;;;;6221816;23;20194;-86
2023/12/22 22:42:34;;;;;;;5.67;2.73;;;2.60;93.30;;;;;;6223553;23;20158;-86
2023/12/22 22:45:06;;;;;;;7.70;2.80;;;2.60;92.50;;;;;;6200440;22;20181;-87
2023/12/22 22:47:39;;;;;;;12.67;2.93;;;2.60;92.90;;;;;;6235653;23;20169;-85
2023/12/22 22:50:13;;;;;;;8.47;2.80;;;2.60;92.80;;;;;;6226581;22;20188;-86
2023/12/22 22:53:02;;;;;;;5.43;2.17;;;2.60;92.40;;;;;;6237362;22;20161;-87
2023/12/22 22:55:32;;;;;;;8.57;3.17;;;2.50;92.10;;;;;;6232177;23;20230;-86
2023/12/22 22:58:01;;;;;;;8.90;2.93;;;2.80;91.90;;;;;;6233701;23;20233;-84
2023/12/22 23:00:35;;;;;;;7.27;2.47;;;2.60;92.20;;;;;;6230819;23;20253;-85
2023/12/22 23:03:07;;;;;;;9.10;2.93;;;2.50;93.00;;;;;;6235864;22;20172;-86
2023/12/22 23:05:37;;;;;;;7.73;2.83;;;2.50;92.40;;;;;;6234784;23;20174;-86
2023/12/22 23:08:18;;;;;;;7.93;2.90;;;2.80;92.00;;;;;;6225856;22;20198;-89
2023/12/22 23:10:50;;;;;;;3.93;2.30;;;2.60;92.20;;;;;;6230251;23;20266;-86
2023/12/22 23:13:29;;;;;;;6.10;2.63;;;2.50;92.10;;;;;;6188179;23;20195;-88
2023/12/22 23:15:58;;;;;;;5.90;2.43;;;2.70;92.20;;;;;;6225443;23;20212;-86
2023/12/22 23:18:37;;;;;;;8.43;2.30;;;2.70;93.10;;;;;;6221837;23;20234;-85
2023/12/22 23:21:09;;;;;;;5.80;2.57;;;2.50;93.00;;;;;;6225887;23;20748;-87
2023/12/22 23:23:40;;;;;;;7.87;2.67;;;2.50;93.20;;;;;;6218897;23;20711;-87
2023/12/22 23:26:09;;;;;;;5.77;2.30;;;2.40;92.60;;;;;;6217103;23;20177;-85
2023/12/22 23:28:40;;;;;;;7.17;3.47;;;2.50;93.30;;;;;;6177138;23;20565;-85
2023/12/22 23:31:10;;;;;;;8.00;2.30;;;2.40;93.90;;;;;;6210307;23;20178;-87
2023/12/22 23:33:43;;;;;;;5.60;2.43;;;2.40;92.80;;;;;;6209948;23;20161;-86